sensor_id;sensor_type;location;lat;lon;timestamp;P1;durP1;ratioP1;P2;durP2;ratioP2
75682;SDS011;64295;44.772;39.872;2023-03-07T00:01:36;7.65;;;4.13;;
75682;SDS011;64295;44.772;39.872;2023-03-07T00:04:02;7.38;;;4.50;;
75682;SDS011;64295;44.772;39.872;2023-03-07T00:06:28;7.95;;;4.13;;
75682;SDS011;64295;44.772;39.872;2023-03-07T00:08:55;8.68;;;4.32;;
75682;SDS011;64295;44.772;39.872;2023-03-07T00:11:23;6.60;;;4.13;;
75682;SDS011;64295;44.772;39.872;2023-03-07T00:13:49;5.75;;;3.25;;
75682;SDS011;64295;44.772;39.872;2023-03-07T00:16:17;8.68;;;4.03;;
75682;SDS011;64295;44.772;39.872;2023-03-07T00:18:44;8.38;;;4.07;;
75682;SDS011;64295;44.772;39.872;2023-03-07T00:21:11;6.13;;;3.45;;
75682;SDS011;64295;44.772;39.872;2023-03-07T00:23:40;6.88;;;4.20;;
75682;SDS011;64295;44.772;39.872;2023-03-07T00:26:08;8.45;;;4.00;;
75682;SDS011;64295;44.772;39.872;2023-03-07T00:28:44;10.98;;;3.95;;
75682;SDS011;64295;44.772;39.872;2023-03-07T00:31:11;6.18;;;3.47;;
75682;SDS011;64295;44.772;39.872;2023-03-07T00:33:37;5.68;;;3.50;;
75682;SDS011;64295;44.772;39.872;2023-03-07T00:36:04;7.97;;;3.72;;
75682;SDS011;64295;44.772;39.872;2023-03-07T00:38:33;6.32;;;3.45;;
75682;SDS011;64295;44.772;39.872;2023-03-07T00:41:01;7.47;;;3.47;;
75682;SDS011;64295;44.772;39.872;2023-03-07T00:43:29;7.45;;;3.72;;
75682;SDS011;64295;44.772;39.872;2023-03-07T00:45:56;5.97;;;3.08;;
75682;SDS011;64295;44.772;39.872;2023-03-07T00:48:22;6.88;;;3.72;;
75682;SDS011;64295;44.772;39.872;2023-03-07T00:50:49;4.13;;;3.20;;
75682;SDS011;64295;44.772;39.872;2023-03-07T00:53:16;7.47;;;3.03;;
75682;SDS011;64295;44.772;39.872;2023-03-07T00:55:59;5.72;;;3.33;;
75682;SDS011;64295;44.772;39.872;2023-03-07T00:58:31;5.40;;;3.47;;
75682;SDS011;64295;44.772;39.872;2023-03-07T01:00:59;4.72;;;2.78;;
75682;SDS011;64295;44.772;39.872;2023-03-07T01:03:26;6.50;;;3.85;;
75682;SDS011;64295;44.772;39.872;2023-03-07T01:05:54;6.43;;;4.20;;
75682;SDS011;64295;44.772;39.872;2023-03-07T01:08:21;8.43;;;3.47;;
75682;SDS011;64295;44.772;39.872;2023-03-07T01:10:48;8.15;;;3.97;;
75682;SDS011;64295;44.772;39.872;2023-03-07T01:13:15;7.60;;;3.83;;
75682;SDS011;64295;44.772;39.872;2023-03-07T01:15:42;10.02;;;5.00;;
75682;SDS011;64295;44.772;39.872;2023-03-07T01:18:09;4.22;;;3.17;;
75682;SDS011;64295;44.772;39.872;2023-03-07T01:20:37;5.38;;;2.95;;
75682;SDS011;64295;44.772;39.872;2023-03-07T01:23:05;7.78;;;3.20;;
75682;SDS011;64295;44.772;39.872;2023-03-07T01:25:31;7.65;;;3.25;;
75682;SDS011;64295;44.772;39.872;2023-03-07T01:28:04;6.72;;;3.55;;
75682;SDS011;64295;44.772;39.872;2023-03-07T01:30:31;7.57;;;3.03;;
75682;SDS011;64295;44.772;39.872;2023-03-07T01:32:58;4.13;;;2.58;;
75682;SDS011;64295;44.772;39.872;2023-03-07T01:35:26;7.78;;;3.55;;
75682;SDS011;64295;44.772;39.872;2023-03-07T01:37:55;9.48;;;3.90;;
75682;SDS011;64295;44.772;39.872;2023-03-07T01:40:22;9.55;;;4.78;;
75682;SDS011;64295;44.772;39.872;2023-03-07T01:42:49;13.25;;;4.35;;
75682;SDS011;64295;44.772;39.872;2023-03-07T01:47:59;10.15;;;4.88;;
75682;SDS011;64295;44.772;39.872;2023-03-07T01:50:25;9.73;;;4.25;;
75682;SDS011;64295;44.772;39.872;2023-03-07T01:52:53;7.95;;;4.20;;
75682;SDS011;64295;44.772;39.872;2023-03-07T01:55:25;9.18;;;4.47;;
75682;SDS011;64295;44.772;39.872;2023-03-07T01:58:06;16.02;;;5.63;;
75682;SDS011;64295;44.772;39.872;2023-03-07T02:00:35;10.65;;;5.10;;
75682;SDS011;64295;44.772;39.872;2023-03-07T02:05:48;10.15;;;4.53;;
75682;SDS011;64295;44.772;39.872;2023-03-07T02:08:17;7.70;;;4.32;;
75682;SDS011;64295;44.772;39.872;2023-03-07T02:10:45;13.77;;;4.47;;
75682;SDS011;64295;44.772;39.872;2023-03-07T02:13:12;10.80;;;4.88;;
75682;SDS011;64295;44.772;39.872;2023-03-07T02:15:39;8.35;;;4.60;;
75682;SDS011;64295;44.772;39.872;2023-03-07T02:18:05;8.80;;;4.72;;
75682;SDS011;64295;44.772;39.872;2023-03-07T02:23:01;11.52;;;6.18;;
75682;SDS011;64295;44.772;39.872;2023-03-07T02:25:34;10.43;;;5.55;;
75682;SDS011;64295;44.772;39.872;2023-03-07T02:28:07;13.13;;;5.82;;
75682;SDS011;64295;44.772;39.872;2023-03-07T02:30:36;15.95;;;7.05;;
75682;SDS011;64295;44.772;39.872;2023-03-07T02:33:03;13.15;;;6.97;;
75682;SDS011;64295;44.772;39.872;2023-03-07T02:35:28;13.02;;;6.72;;
75682;SDS011;64295;44.772;39.872;2023-03-07T02:37:59;16.25;;;6.90;;
75682;SDS011;64295;44.772;39.872;2023-03-07T02:40:28;14.40;;;7.20;;
75682;SDS011;64295;44.772;39.872;2023-03-07T02:42:56;13.38;;;6.90;;
75682;SDS011;64295;44.772;39.872;2023-03-07T02:45:30;12.80;;;5.75;;
75682;SDS011;64295;44.772;39.872;2023-03-07T02:47:56;12.70;;;4.75;;
75682;SDS011;64295;44.772;39.872;2023-03-07T02:50:22;11.13;;;5.30;;
75682;SDS011;64295;44.772;39.872;2023-03-07T02:52:51;16.52;;;6.65;;
75682;SDS011;64295;44.772;39.872;2023-03-07T02:55:17;19.50;;;6.53;;
75682;SDS011;64295;44.772;39.872;2023-03-07T02:57:52;16.48;;;6.05;;
75682;SDS011;64295;44.772;39.872;2023-03-07T03:00:18;11.13;;;5.07;;
75682;SDS011;64295;44.772;39.872;2023-03-07T03:02:45;11.02;;;5.03;;
75682;SDS011;64295;44.772;39.872;2023-03-07T03:05:12;12.23;;;5.32;;
75682;SDS011;64295;44.772;39.872;2023-03-07T03:07:38;11.50;;;5.55;;
75682;SDS011;64295;44.772;39.872;2023-03-07T03:10:04;13.27;;;5.60;;
75682;SDS011;64295;44.772;39.872;2023-03-07T03:12:31;11.70;;;4.70;;
75682;SDS011;64295;44.772;39.872;2023-03-07T03:14:58;9.57;;;4.70;;
75682;SDS011;64295;44.772;39.872;2023-03-07T03:17:24;13.73;;;6.25;;
75682;SDS011;64295;44.772;39.872;2023-03-07T03:19:49;6.68;;;4.00;;
75682;SDS011;64295;44.772;39.872;2023-03-07T03:22:15;12.10;;;5.38;;
75682;SDS011;64295;44.772;39.872;2023-03-07T03:24:45;12.45;;;5.00;;
75682;SDS011;64295;44.772;39.872;2023-03-07T03:27:13;10.10;;;5.45;;
75682;SDS011;64295;44.772;39.872;2023-03-07T03:29:41;11.52;;;6.18;;
75682;SDS011;64295;44.772;39.872;2023-03-07T03:32:08;10.80;;;5.85;;
75682;SDS011;64295;44.772;39.872;2023-03-07T03:34:34;16.30;;;6.45;;
75682;SDS011;64295;44.772;39.872;2023-03-07T03:37:00;12.05;;;6.60;;
75682;SDS011;64295;44.772;39.872;2023-03-07T03:39:27;16.48;;;7.47;;
75682;SDS011;64295;44.772;39.872;2023-03-07T03:44:22;10.35;;;6.38;;
75682;SDS011;64295;44.772;39.872;2023-03-07T03:46:49;12.02;;;5.78;;
75682;SDS011;64295;44.772;39.872;2023-03-07T03:49:16;15.23;;;6.40;;
75682;SDS011;64295;44.772;39.872;2023-03-07T03:51:46;11.70;;;6.18;;
75682;SDS011;64295;44.772;39.872;2023-03-07T03:54:12;14.13;;;5.90;;
75682;SDS011;64295;44.772;39.872;2023-03-07T03:56:38;16.15;;;6.50;;
75682;SDS011;64295;44.772;39.872;2023-03-07T03:59:04;15.10;;;6.13;;
75682;SDS011;64295;44.772;39.872;2023-03-07T04:01:30;12.30;;;5.55;;
75682;SDS011;64295;44.772;39.872;2023-03-07T04:03:56;14.73;;;6.55;;
75682;SDS011;64295;44.772;39.872;2023-03-07T04:06:27;12.25;;;5.95;;
75682;SDS011;64295;44.772;39.872;2023-03-07T04:08:55;13.07;;;5.25;;
75682;SDS011;64295;44.772;39.872;2023-03-07T04:11:22;9.43;;;4.75;;
75682;SDS011;64295;44.772;39.872;2023-03-07T04:13:49;10.02;;;5.25;;
75682;SDS011;64295;44.772;39.872;2023-03-07T04:16:16;15.50;;;6.35;;
75682;SDS011;64295;44.772;39.872;2023-03-07T04:18:42;13.90;;;5.90;;
75682;SDS011;64295;44.772;39.872;2023-03-07T04:21:08;18.15;;;6.75;;
75682;SDS011;64295;44.772;39.872;2023-03-07T04:23:36;18.77;;;6.55;;
75682;SDS011;64295;44.772;39.872;2023-03-07T04:26:03;15.00;;;6.28;;
75682;SDS011;64295;44.772;39.872;2023-03-07T04:28:33;16.38;;;6.43;;
75682;SDS011;64295;44.772;39.872;2023-03-07T04:31:15;15.43;;;7.00;;
75682;SDS011;64295;44.772;39.872;2023-03-07T04:33:46;14.63;;;6.70;;
75682;SDS011;64295;44.772;39.872;2023-03-07T04:36:14;11.50;;;6.38;;
75682;SDS011;64295;44.772;39.872;2023-03-07T04:38:44;14.30;;;6.30;;
75682;SDS011;64295;44.772;39.872;2023-03-07T04:41:19;13.50;;;6.35;;
75682;SDS011;64295;44.772;39.872;2023-03-07T04:43:50;16.17;;;5.85;;
75682;SDS011;64295;44.772;39.872;2023-03-07T04:46:17;15.60;;;7.50;;
75682;SDS011;64295;44.772;39.872;2023-03-07T04:48:43;11.18;;;6.35;;
75682;SDS011;64295;44.772;39.872;2023-03-07T04:51:10;14.35;;;6.50;;
75682;SDS011;64295;44.772;39.872;2023-03-07T04:53:36;15.60;;;7.28;;
75682;SDS011;64295;44.772;39.872;2023-03-07T04:56:03;17.08;;;8.02;;
75682;SDS011;64295;44.772;39.872;2023-03-07T04:58:31;18.60;;;9.05;;
75682;SDS011;64295;44.772;39.872;2023-03-07T05:00:58;13.70;;;6.97;;
75682;SDS011;64295;44.772;39.872;2023-03-07T05:03:25;15.15;;;6.88;;
75682;SDS011;64295;44.772;39.872;2023-03-07T05:05:52;16.45;;;6.45;;
75682;SDS011;64295;44.772;39.872;2023-03-07T05:08:19;12.00;;;6.15;;
75682;SDS011;64295;44.772;39.872;2023-03-07T05:10:46;18.00;;;7.22;;
75682;SDS011;64295;44.772;39.872;2023-03-07T05:13:12;12.73;;;6.15;;
75682;SDS011;64295;44.772;39.872;2023-03-07T05:15:39;10.98;;;5.97;;
75682;SDS011;64295;44.772;39.872;2023-03-07T05:18:05;17.38;;;7.72;;
75682;SDS011;64295;44.772;39.872;2023-03-07T05:20:31;14.82;;;6.45;;
75682;SDS011;64295;44.772;39.872;2023-03-07T05:22:58;12.40;;;6.88;;
75682;SDS011;64295;44.772;39.872;2023-03-07T05:25:24;14.48;;;6.47;;
75682;SDS011;64295;44.772;39.872;2023-03-07T05:27:50;13.73;;;6.30;;
75682;SDS011;64295;44.772;39.872;2023-03-07T05:30:16;14.82;;;6.97;;
75682;SDS011;64295;44.772;39.872;2023-03-07T05:32:43;14.07;;;7.82;;
75682;SDS011;64295;44.772;39.872;2023-03-07T05:35:11;15.30;;;7.82;;
75682;SDS011;64295;44.772;39.872;2023-03-07T05:37:38;15.82;;;8.43;;
75682;SDS011;64295;44.772;39.872;2023-03-07T05:40:04;14.90;;;7.43;;
75682;SDS011;64295;44.772;39.872;2023-03-07T05:42:40;12.40;;;6.75;;
75682;SDS011;64295;44.772;39.872;2023-03-07T05:45:07;10.77;;;6.97;;
75682;SDS011;64295;44.772;39.872;2023-03-07T05:47:33;12.73;;;6.20;;
75682;SDS011;64295;44.772;39.872;2023-03-07T05:49:59;13.27;;;6.10;;
75682;SDS011;64295;44.772;39.872;2023-03-07T05:52:26;10.27;;;5.20;;
75682;SDS011;64295;44.772;39.872;2023-03-07T05:54:53;11.70;;;5.47;;
75682;SDS011;64295;44.772;39.872;2023-03-07T05:57:19;16.88;;;7.72;;
75682;SDS011;64295;44.772;39.872;2023-03-07T05:59:46;11.13;;;5.75;;
75682;SDS011;64295;44.772;39.872;2023-03-07T06:02:12;11.45;;;6.63;;
75682;SDS011;64295;44.772;39.872;2023-03-07T06:04:39;12.40;;;6.57;;
75682;SDS011;64295;44.772;39.872;2023-03-07T06:07:05;15.15;;;8.43;;
75682;SDS011;64295;44.772;39.872;2023-03-07T06:09:31;12.48;;;6.20;;
75682;SDS011;64295;44.772;39.872;2023-03-07T06:11:58;15.95;;;7.07;;
75682;SDS011;64295;44.772;39.872;2023-03-07T06:14:24;12.80;;;6.32;;
75682;SDS011;64295;44.772;39.872;2023-03-07T06:16:50;12.75;;;6.55;;
75682;SDS011;64295;44.772;39.872;2023-03-07T06:19:16;12.45;;;5.22;;
75682;SDS011;64295;44.772;39.872;2023-03-07T06:21:42;10.07;;;6.32;;
75682;SDS011;64295;44.772;39.872;2023-03-07T06:24:08;14.05;;;6.68;;
75682;SDS011;64295;44.772;39.872;2023-03-07T06:26:34;12.02;;;5.68;;
75682;SDS011;64295;44.772;39.872;2023-03-07T06:29:01;9.88;;;5.35;;
75682;SDS011;64295;44.772;39.872;2023-03-07T06:31:27;9.13;;;4.63;;
75682;SDS011;64295;44.772;39.872;2023-03-07T06:33:54;10.00;;;5.75;;
75682;SDS011;64295;44.772;39.872;2023-03-07T06:36:20;7.45;;;4.38;;
75682;SDS011;64295;44.772;39.872;2023-03-07T06:38:53;8.68;;;4.97;;
75682;SDS011;64295;44.772;39.872;2023-03-07T06:41:20;10.52;;;5.25;;
75682;SDS011;64295;44.772;39.872;2023-03-07T06:43:50;8.40;;;4.07;;
75682;SDS011;64295;44.772;39.872;2023-03-07T06:46:18;9.93;;;4.60;;
75682;SDS011;64295;44.772;39.872;2023-03-07T06:48:45;10.82;;;5.20;;
75682;SDS011;64295;44.772;39.872;2023-03-07T06:51:15;9.82;;;4.30;;
75682;SDS011;64295;44.772;39.872;2023-03-07T06:53:45;10.20;;;4.75;;
75682;SDS011;64295;44.772;39.872;2023-03-07T06:56:11;9.52;;;4.50;;
75682;SDS011;64295;44.772;39.872;2023-03-07T06:58:38;7.22;;;4.30;;
75682;SDS011;64295;44.772;39.872;2023-03-07T07:01:06;10.75;;;4.30;;
75682;SDS011;64295;44.772;39.872;2023-03-07T07:03:34;7.93;;;4.40;;
75682;SDS011;64295;44.772;39.872;2023-03-07T07:05:59;9.55;;;4.15;;
75682;SDS011;64295;44.772;39.872;2023-03-07T07:08:28;8.48;;;4.03;;
75682;SDS011;64295;44.772;39.872;2023-03-07T07:10:57;10.82;;;4.55;;
75682;SDS011;64295;44.772;39.872;2023-03-07T07:13:24;8.38;;;4.63;;
75682;SDS011;64295;44.772;39.872;2023-03-07T07:15:50;11.52;;;4.97;;
75682;SDS011;64295;44.772;39.872;2023-03-07T07:18:16;8.27;;;4.70;;
75682;SDS011;64295;44.772;39.872;2023-03-07T07:20:42;11.20;;;5.10;;
75682;SDS011;64295;44.772;39.872;2023-03-07T07:23:08;14.38;;;6.47;;
75682;SDS011;64295;44.772;39.872;2023-03-07T07:25:36;9.40;;;5.13;;
75682;SDS011;64295;44.772;39.872;2023-03-07T07:28:03;11.10;;;4.55;;
75682;SDS011;64295;44.772;39.872;2023-03-07T07:30:29;11.70;;;4.80;;
75682;SDS011;64295;44.772;39.872;2023-03-07T07:32:55;8.75;;;3.97;;
75682;SDS011;64295;44.772;39.872;2023-03-07T07:35:21;10.77;;;4.50;;
75682;SDS011;64295;44.772;39.872;2023-03-07T07:37:47;11.82;;;5.13;;
75682;SDS011;64295;44.772;39.872;2023-03-07T07:40:13;8.50;;;3.95;;
75682;SDS011;64295;44.772;39.872;2023-03-07T07:42:40;8.95;;;4.25;;
75682;SDS011;64295;44.772;39.872;2023-03-07T07:45:27;7.15;;;3.88;;
75682;SDS011;64295;44.772;39.872;2023-03-07T07:47:53;5.68;;;3.65;;
75682;SDS011;64295;44.772;39.872;2023-03-07T07:50:21;6.55;;;3.47;;
75682;SDS011;64295;44.772;39.872;2023-03-07T07:52:48;6.03;;;3.40;;
75682;SDS011;64295;44.772;39.872;2023-03-07T07:55:14;8.13;;;4.20;;
75682;SDS011;64295;44.772;39.872;2023-03-07T07:57:42;8.18;;;4.05;;
75682;SDS011;64295;44.772;39.872;2023-03-07T08:00:09;8.70;;;4.07;;
75682;SDS011;64295;44.772;39.872;2023-03-07T08:02:39;10.10;;;4.15;;
75682;SDS011;64295;44.772;39.872;2023-03-07T08:05:06;8.07;;;3.47;;
75682;SDS011;64295;44.772;39.872;2023-03-07T08:10:00;6.28;;;3.17;;
75682;SDS011;64295;44.772;39.872;2023-03-07T08:12:26;6.60;;;3.22;;
75682;SDS011;64295;44.772;39.872;2023-03-07T08:14:51;7.55;;;3.42;;
75682;SDS011;64295;44.772;39.872;2023-03-07T08:17:17;8.25;;;3.90;;
75682;SDS011;64295;44.772;39.872;2023-03-07T08:19:43;7.22;;;3.65;;
75682;SDS011;64295;44.772;39.872;2023-03-07T08:22:09;7.78;;;3.50;;
75682;SDS011;64295;44.772;39.872;2023-03-07T08:24:35;7.32;;;3.97;;
75682;SDS011;64295;44.772;39.872;2023-03-07T08:27:02;8.55;;;4.80;;
75682;SDS011;64295;44.772;39.872;2023-03-07T08:29:31;6.70;;;3.60;;
75682;SDS011;64295;44.772;39.872;2023-03-07T08:31:57;6.18;;;3.45;;
75682;SDS011;64295;44.772;39.872;2023-03-07T08:34:23;9.30;;;4.22;;
75682;SDS011;64295;44.772;39.872;2023-03-07T08:36:49;7.00;;;3.50;;
75682;SDS011;64295;44.772;39.872;2023-03-07T08:39:17;7.78;;;3.60;;
75682;SDS011;64295;44.772;39.872;2023-03-07T08:41:43;7.03;;;3.40;;
75682;SDS011;64295;44.772;39.872;2023-03-07T08:44:09;6.15;;;3.60;;
75682;SDS011;64295;44.772;39.872;2023-03-07T08:46:34;8.05;;;3.42;;
75682;SDS011;64295;44.772;39.872;2023-03-07T08:49:00;6.78;;;3.90;;
75682;SDS011;64295;44.772;39.872;2023-03-07T08:51:26;8.18;;;3.13;;
75682;SDS011;64295;44.772;39.872;2023-03-07T08:53:53;7.50;;;3.50;;
75682;SDS011;64295;44.772;39.872;2023-03-07T08:56:18;6.80;;;3.20;;
75682;SDS011;64295;44.772;39.872;2023-03-07T08:58:45;5.90;;;3.45;;
75682;SDS011;64295;44.772;39.872;2023-03-07T09:01:11;5.78;;;3.78;;
75682;SDS011;64295;44.772;39.872;2023-03-07T09:03:37;6.47;;;3.75;;
75682;SDS011;64295;44.772;39.872;2023-03-07T09:06:03;6.53;;;3.22;;
75682;SDS011;64295;44.772;39.872;2023-03-07T09:08:30;8.23;;;3.88;;
75682;SDS011;64295;44.772;39.872;2023-03-07T09:11:00;8.38;;;4.22;;
75682;SDS011;64295;44.772;39.872;2023-03-07T09:13:28;9.02;;;4.25;;
75682;SDS011;64295;44.772;39.872;2023-03-07T09:15:54;6.88;;;4.47;;
75682;SDS011;64295;44.772;39.872;2023-03-07T09:18:19;8.00;;;4.18;;
75682;SDS011;64295;44.772;39.872;2023-03-07T09:20:47;8.55;;;3.90;;
75682;SDS011;64295;44.772;39.872;2023-03-07T09:23:13;7.20;;;4.38;;
75682;SDS011;64295;44.772;39.872;2023-03-07T09:25:38;7.35;;;4.00;;
75682;SDS011;64295;44.772;39.872;2023-03-07T09:28:04;5.78;;;3.28;;
75682;SDS011;64295;44.772;39.872;2023-03-07T09:30:30;5.97;;;3.47;;
75682;SDS011;64295;44.772;39.872;2023-03-07T09:32:56;8.77;;;3.90;;
75682;SDS011;64295;44.772;39.872;2023-03-07T09:35:23;8.40;;;3.55;;
75682;SDS011;64295;44.772;39.872;2023-03-07T09:37:49;8.85;;;4.50;;
75682;SDS011;64295;44.772;39.872;2023-03-07T09:40:19;7.40;;;3.58;;
75682;SDS011;64295;44.772;39.872;2023-03-07T09:45:33;8.68;;;4.00;;
75682;SDS011;64295;44.772;39.872;2023-03-07T09:53:46;6.78;;;2.90;;
75682;SDS011;64295;44.772;39.872;2023-03-07T09:56:28;6.93;;;3.05;;
75682;SDS011;64295;44.772;39.872;2023-03-07T09:59:40;9.63;;;4.43;;
75682;SDS011;64295;44.772;39.872;2023-03-07T10:04:41;10.15;;;3.83;;
75682;SDS011;64295;44.772;39.872;2023-03-07T10:07:14;6.72;;;3.63;;
75682;SDS011;64295;44.772;39.872;2023-03-07T10:09:40;6.35;;;3.63;;
75682;SDS011;64295;44.772;39.872;2023-03-07T10:20:23;9.38;;;3.78;;
75682;SDS011;64295;44.772;39.872;2023-03-07T10:28:36;8.18;;;3.70;;
75682;SDS011;64295;44.772;39.872;2023-03-07T10:33:51;5.97;;;3.58;;
75682;SDS011;64295;44.772;39.872;2023-03-07T10:36:36;5.88;;;3.47;;
75682;SDS011;64295;44.772;39.872;2023-03-07T10:41:49;7.05;;;3.50;;
75682;SDS011;64295;44.772;39.872;2023-03-07T10:44:16;10.65;;;3.92;;
75682;SDS011;64295;44.772;39.872;2023-03-07T10:49:17;12.30;;;3.85;;
75682;SDS011;64295;44.772;39.872;2023-03-07T10:54:29;6.20;;;3.70;;
75682;SDS011;64295;44.772;39.872;2023-03-07T10:59:34;8.30;;;3.50;;
75682;SDS011;64295;44.772;39.872;2023-03-07T11:02:01;8.98;;;3.90;;
75682;SDS011;64295;44.772;39.872;2023-03-07T11:04:43;7.55;;;3.83;;
75682;SDS011;64295;44.772;39.872;2023-03-07T11:07:30;6.78;;;4.43;;
75682;SDS011;64295;44.772;39.872;2023-03-07T11:09:59;5.75;;;3.63;;
75682;SDS011;64295;44.772;39.872;2023-03-07T11:12:27;6.47;;;3.38;;
75682;SDS011;64295;44.772;39.872;2023-03-07T11:14:55;6.53;;;3.35;;
75682;SDS011;64295;44.772;39.872;2023-03-07T11:17:44;6.18;;;4.00;;
75682;SDS011;64295;44.772;39.872;2023-03-07T11:23:23;7.97;;;3.95;;
75682;SDS011;64295;44.772;39.872;2023-03-07T11:25:51;9.73;;;4.45;;
75682;SDS011;64295;44.772;39.872;2023-03-07T11:28:34;7.50;;;3.55;;
75682;SDS011;64295;44.772;39.872;2023-03-07T11:31:11;10.57;;;4.60;;
75682;SDS011;64295;44.772;39.872;2023-03-07T11:36:13;5.78;;;3.63;;
75682;SDS011;64295;44.772;39.872;2023-03-07T11:41:50;5.75;;;4.03;;
75682;SDS011;64295;44.772;39.872;2023-03-07T11:49:43;6.72;;;3.97;;
75682;SDS011;64295;44.772;39.872;2023-03-07T11:54:59;7.97;;;3.45;;
75682;SDS011;64295;44.772;39.872;2023-03-07T11:57:56;8.18;;;4.15;;
75682;SDS011;64295;44.772;39.872;2023-03-07T12:06:11;6.82;;;4.03;;
75682;SDS011;64295;44.772;39.872;2023-03-07T12:22:59;6.57;;;3.75;;
75682;SDS011;64295;44.772;39.872;2023-03-07T12:25:48;5.30;;;3.75;;
75682;SDS011;64295;44.772;39.872;2023-03-07T12:47:00;6.53;;;3.58;;
75682;SDS011;64295;44.772;39.872;2023-03-07T12:49:40;7.13;;;4.28;;
75682;SDS011;64295;44.772;39.872;2023-03-07T12:52:15;10.25;;;4.40;;
75682;SDS011;64295;44.772;39.872;2023-03-07T12:55:09;6.30;;;4.22;;
75682;SDS011;64295;44.772;39.872;2023-03-07T12:57:55;6.90;;;3.67;;
75682;SDS011;64295;44.772;39.872;2023-03-07T13:00:30;8.38;;;3.67;;
75682;SDS011;64295;44.772;39.872;2023-03-07T13:03:01;9.77;;;4.30;;
75682;SDS011;64295;44.772;39.872;2023-03-07T13:05:32;6.05;;;3.90;;
75682;SDS011;64295;44.772;39.872;2023-03-07T13:08:00;7.60;;;3.90;;
75682;SDS011;64295;44.772;39.872;2023-03-07T13:10:27;8.70;;;4.35;;
75682;SDS011;64295;44.772;39.872;2023-03-07T13:12:54;7.13;;;4.22;;
75682;SDS011;64295;44.772;39.872;2023-03-07T13:23:11;5.43;;;3.75;;
75682;SDS011;64295;44.772;39.872;2023-03-07T13:25:53;6.88;;;3.90;;
75682;SDS011;64295;44.772;39.872;2023-03-07T13:28:31;9.02;;;3.95;;
75682;SDS011;64295;44.772;39.872;2023-03-07T13:33:39;7.20;;;4.00;;
75682;SDS011;64295;44.772;39.872;2023-03-07T13:36:14;11.43;;;4.40;;
75682;SDS011;64295;44.772;39.872;2023-03-07T13:42:01;10.55;;;4.60;;
75682;SDS011;64295;44.772;39.872;2023-03-07T13:44:28;10.65;;;4.47;;
75682;SDS011;64295;44.772;39.872;2023-03-07T13:47:02;11.57;;;4.88;;
75682;SDS011;64295;44.772;39.872;2023-03-07T13:49:33;8.13;;;5.35;;
75682;SDS011;64295;44.772;39.872;2023-03-07T13:52:21;8.95;;;4.30;;
75682;SDS011;64295;44.772;39.872;2023-03-07T13:54:55;8.85;;;3.80;;
75682;SDS011;64295;44.772;39.872;2023-03-07T13:57:23;6.13;;;3.55;;
75682;SDS011;64295;44.772;39.872;2023-03-07T13:59:53;7.00;;;4.03;;
75682;SDS011;64295;44.772;39.872;2023-03-07T14:02:20;8.75;;;4.95;;
75682;SDS011;64295;44.772;39.872;2023-03-07T14:04:48;8.82;;;4.50;;
75682;SDS011;64295;44.772;39.872;2023-03-07T14:07:24;7.60;;;4.35;;
75682;SDS011;64295;44.772;39.872;2023-03-07T14:09:57;7.55;;;4.30;;
75682;SDS011;64295;44.772;39.872;2023-03-07T14:20:16;9.77;;;4.90;;
75682;SDS011;64295;44.772;39.872;2023-03-07T14:27:54;7.03;;;4.13;;
75682;SDS011;64295;44.772;39.872;2023-03-07T14:30:29;9.70;;;4.53;;
75682;SDS011;64295;44.772;39.872;2023-03-07T14:32:58;6.30;;;4.65;;
75682;SDS011;64295;44.772;39.872;2023-03-07T14:35:33;8.20;;;5.20;;
75682;SDS011;64295;44.772;39.872;2023-03-07T14:38:01;8.60;;;5.22;;
75682;SDS011;64295;44.772;39.872;2023-03-07T14:40:32;7.18;;;4.30;;
75682;SDS011;64295;44.772;39.872;2023-03-07T14:51:43;8.98;;;4.07;;
75682;SDS011;64295;44.772;39.872;2023-03-07T14:54:16;9.73;;;4.25;;
75682;SDS011;64295;44.772;39.872;2023-03-07T14:56:45;9.60;;;4.57;;
75682;SDS011;64295;44.772;39.872;2023-03-07T14:59:15;7.45;;;4.45;;
75682;SDS011;64295;44.772;39.872;2023-03-07T15:01:41;7.55;;;4.78;;
75682;SDS011;64295;44.772;39.872;2023-03-07T15:04:18;8.82;;;4.60;;
75682;SDS011;64295;44.772;39.872;2023-03-07T15:06:54;17.27;;;5.50;;
75682;SDS011;64295;44.772;39.872;2023-03-07T15:09:25;9.40;;;4.93;;
75682;SDS011;64295;44.772;39.872;2023-03-07T15:15:04;10.45;;;4.57;;
75682;SDS011;64295;44.772;39.872;2023-03-07T15:17:35;11.85;;;5.32;;
75682;SDS011;64295;44.772;39.872;2023-03-07T15:20:23;10.32;;;5.80;;
75682;SDS011;64295;44.772;39.872;2023-03-07T15:22:57;11.02;;;6.07;;
75682;SDS011;64295;44.772;39.872;2023-03-07T15:25:30;15.65;;;6.55;;
75682;SDS011;64295;44.772;39.872;2023-03-07T15:28:01;14.98;;;6.60;;
75682;SDS011;64295;44.772;39.872;2023-03-07T15:30:39;13.27;;;5.70;;
75682;SDS011;64295;44.772;39.872;2023-03-07T15:33:10;15.73;;;6.70;;
75682;SDS011;64295;44.772;39.872;2023-03-07T15:35:46;12.10;;;6.53;;
75682;SDS011;64295;44.772;39.872;2023-03-07T15:38:30;15.07;;;6.07;;
75682;SDS011;64295;44.772;39.872;2023-03-07T15:40:57;13.88;;;5.43;;
75682;SDS011;64295;44.772;39.872;2023-03-07T15:43:26;7.20;;;4.57;;
75682;SDS011;64295;44.772;39.872;2023-03-07T15:51:15;8.55;;;5.43;;
75682;SDS011;64295;44.772;39.872;2023-03-07T15:56:22;11.00;;;4.47;;
75682;SDS011;64295;44.772;39.872;2023-03-07T15:58:49;9.88;;;5.10;;
75682;SDS011;64295;44.772;39.872;2023-03-07T16:01:20;11.40;;;5.18;;
75682;SDS011;64295;44.772;39.872;2023-03-07T16:03:54;8.43;;;4.55;;
75682;SDS011;64295;44.772;39.872;2023-03-07T16:06:39;12.40;;;5.32;;
75682;SDS011;64295;44.772;39.872;2023-03-07T16:09:11;14.85;;;4.75;;
75682;SDS011;64295;44.772;39.872;2023-03-07T16:11:39;13.27;;;5.55;;
75682;SDS011;64295;44.772;39.872;2023-03-07T16:14:24;13.57;;;4.78;;
75682;SDS011;64295;44.772;39.872;2023-03-07T16:16:57;12.70;;;5.32;;
75682;SDS011;64295;44.772;39.872;2023-03-07T16:19:25;16.00;;;5.65;;
75682;SDS011;64295;44.772;39.872;2023-03-07T16:21:51;10.73;;;5.75;;
75682;SDS011;64295;44.772;39.872;2023-03-07T16:24:17;12.07;;;4.57;;
75682;SDS011;64295;44.772;39.872;2023-03-07T16:26:43;11.93;;;4.97;;
75682;SDS011;64295;44.772;39.872;2023-03-07T16:29:16;13.68;;;5.32;;
75682;SDS011;64295;44.772;39.872;2023-03-07T16:31:45;14.50;;;5.47;;
75682;SDS011;64295;44.772;39.872;2023-03-07T16:34:14;11.45;;;5.32;;
75682;SDS011;64295;44.772;39.872;2023-03-07T16:36:45;11.35;;;5.35;;
75682;SDS011;64295;44.772;39.872;2023-03-07T16:39:14;12.25;;;6.07;;
75682;SDS011;64295;44.772;39.872;2023-03-07T16:41:44;14.73;;;6.88;;
75682;SDS011;64295;44.772;39.872;2023-03-07T16:44:18;24.50;;;10.05;;
75682;SDS011;64295;44.772;39.872;2023-03-07T16:46:47;20.70;;;7.13;;
75682;SDS011;64295;44.772;39.872;2023-03-07T16:49:28;24.95;;;9.43;;
75682;SDS011;64295;44.772;39.872;2023-03-07T16:51:54;23.55;;;9.98;;
75682;SDS011;64295;44.772;39.872;2023-03-07T16:54:20;25.52;;;9.05;;
75682;SDS011;64295;44.772;39.872;2023-03-07T16:56:46;19.17;;;8.20;;
75682;SDS011;64295;44.772;39.872;2023-03-07T16:59:15;16.25;;;7.45;;
75682;SDS011;64295;44.772;39.872;2023-03-07T17:01:44;14.88;;;6.85;;
75682;SDS011;64295;44.772;39.872;2023-03-07T17:04:12;13.93;;;5.85;;
75682;SDS011;64295;44.772;39.872;2023-03-07T17:06:38;9.38;;;5.10;;
75682;SDS011;64295;44.772;39.872;2023-03-07T17:09:05;17.88;;;5.35;;
75682;SDS011;64295;44.772;39.872;2023-03-07T17:11:31;14.23;;;6.00;;
75682;SDS011;64295;44.772;39.872;2023-03-07T17:13:58;9.23;;;4.32;;